createdAt,value
2023-03-06T00:04:29.378Z,0.26
2023-03-06T00:09:31.915Z,2.27
2023-03-06T00:14:34.462Z,1.33
2023-03-06T00:19:36.973Z,-0.70
2023-03-06T00:24:39.463Z,-1.41
2023-03-06T00:29:42.239Z,0.66
2023-03-06T00:34:48.904Z,2.44
2023-03-06T00:39:51.760Z,2.11
2023-03-06T00:44:54.287Z,-0.26
2023-03-06T00:49:56.832Z,-0.35
2023-03-06T00:54:59.368Z,1.57
2023-03-06T01:00:02.357Z,2.52
2023-03-06T01:05:06.085Z,0.88
2023-03-06T01:10:09.628Z,-0.98
2023-03-06T01:15:13.408Z,-0.17
2023-03-06T01:20:17.394Z,1.59
2023-03-06T01:25:19.918Z,1.95
2023-03-06T01:30:22.451Z,-0.32
2023-03-06T01:35:25.026Z,-0.90
2023-03-06T01:40:27.583Z,1.06
2023-03-06T01:45:30.124Z,2.29
2023-03-06T01:50:32.905Z,1.37
2023-03-06T01:55:36.829Z,-0.77
2023-03-06T02:00:39.397Z,-1.25
2023-03-06T02:05:43.722Z,0.77
2023-03-06T02:11:17.248Z,2.07
2023-03-06T02:16:24.389Z,0.29
2023-03-06T02:21:32.752Z,-1.12
2023-03-06T02:26:37.231Z,1.08
2023-03-06T02:31:42.363Z,2.41
2023-03-06T02:36:51.386Z,-0.11
2023-03-06T02:41:54.383Z,-0.73
2023-03-06T02:46:56.902Z,1.18
2023-03-06T02:51:59.399Z,2.13
2023-03-06T02:57:01.904Z,0.46
2023-03-06T03:02:04.602Z,-1.43
2023-03-06T03:07:08.171Z,-1.84
2023-03-06T03:12:10.764Z,0.22
2023-03-06T03:17:13.319Z,1.64
2023-03-06T03:22:16.614Z,1.08
2023-03-06T03:27:19.142Z,-1.02
2023-03-06T03:32:21.711Z,-2.38
2023-03-06T03:37:24.300Z,-2.25
2023-03-06T03:42:26.798Z,-0.04
2023-03-06T03:47:29.299Z,1.41
2023-03-06T03:52:31.887Z,1.23
2023-03-06T03:57:34.399Z,-0.99
2023-03-06T04:02:36.883Z,-1.79
2023-03-06T04:07:39.449Z,0.20
2023-03-06T04:12:41.948Z,1.43
2023-03-06T04:17:44.482Z,1.38
2023-03-06T04:22:47.037Z,-0.96
2023-03-06T04:27:49.514Z,-1.18
2023-03-06T04:32:52.124Z,1.33
2023-03-06T04:37:54.934Z,1.46
2023-03-06T04:42:59.639Z,-1.04
2023-03-06T04:48:02.656Z,-0.70
2023-03-06T04:53:05.284Z,1.90
2023-03-06T04:58:07.764Z,1.43
2023-03-06T05:03:11.909Z,-1.18
2023-03-06T05:08:15.982Z,-1.14
2023-03-06T05:13:18.443Z,0.61
2023-03-06T05:18:21.323Z,1.40
2023-03-06T05:23:23.845Z,-0.29
2023-03-06T05:28:26.938Z,-1.58
2023-03-06T05:33:31.809Z,0.07
2023-03-06T05:38:34.374Z,1.50
2023-03-06T05:43:36.917Z,1.10
2023-03-06T05:48:39.546Z,-1.18
2023-03-06T05:53:42.070Z,-1.16
2023-03-06T05:58:44.615Z,1.06
2023-03-06T06:03:48.614Z,1.30
2023-03-06T06:08:51.251Z,-0.60
2023-03-06T06:13:53.733Z,-1.19
2023-03-06T06:18:57.052Z,1.01
2023-03-06T06:23:59.559Z,1.84
2023-03-06T06:29:04.319Z,-0.04
2023-03-06T06:34:08.127Z,-1.11
2023-03-06T06:39:13.446Z,0.52
2023-03-06T06:44:16.155Z,2.55
2023-03-06T06:49:18.778Z,1.98
2023-03-06T06:54:22.372Z,0.23
2023-03-06T06:59:25.005Z,0.42
2023-03-06T07:04:27.663Z,2.65
2023-03-06T07:09:31.213Z,2.08
2023-03-06T07:14:33.906Z,0.61
2023-03-06T07:19:37.963Z,1.89
2023-03-06T07:24:41.389Z,3.05
2023-03-06T07:29:44.335Z,1.55
2023-03-06T07:34:47.818Z,0.50
2023-03-06T07:39:50.359Z,1.14
2023-03-06T07:44:52.947Z,3.44
2023-03-06T07:49:56.382Z,2.47
2023-03-06T07:54:59.005Z,1.15
2023-03-06T08:00:02.187Z,1.43
2023-03-06T08:05:06.733Z,3.85
2023-03-06T08:10:13.069Z,3.34
2023-03-06T08:15:15.530Z,2.01
2023-03-06T08:20:18.561Z,2.93
2023-03-06T08:25:21.178Z,3.71
2023-03-06T08:30:23.797Z,2.49
2023-03-06T08:35:26.301Z,2.07
2023-03-06T08:40:30.451Z,4.27
2023-03-06T08:45:33.170Z,4.61
2023-03-06T08:50:35.753Z,3.34
2023-03-06T08:55:39.215Z,2.66
2023-03-06T09:00:41.794Z,2.33
2023-03-06T09:05:44.552Z,2.33
2023-03-06T09:10:48.442Z,3.69
2023-03-06T09:15:51.006Z,3.17
2023-03-06T09:20:53.539Z,2.75
2023-03-06T09:25:58.074Z,2.59
2023-03-06T09:31:00.851Z,2.58
2023-03-06T09:36:04.538Z,2.70
2023-03-06T09:41:32.514Z,2.80
2023-03-06T09:46:56.812Z,3.06
2023-03-06T09:52:02.082Z,3.15
2023-03-06T09:57:29.248Z,3.31
2023-03-06T10:02:46.064Z,3.51
2023-03-06T10:08:04.038Z,3.73
2023-03-06T10:13:19.262Z,3.96
2023-03-06T10:18:21.876Z,4.26
2023-03-06T10:23:33.564Z,4.47
2023-03-06T10:28:46.828Z,4.46
2023-03-06T10:33:55.630Z,4.48
2023-03-06T10:38:59.182Z,4.67
2023-03-06T10:44:04.792Z,4.56
2023-03-06T10:49:25.183Z,4.57
2023-03-06T10:54:31.298Z,4.52
2023-03-06T10:59:33.754Z,4.69
2023-03-06T11:04:36.634Z,4.94
2023-03-06T11:09:39.594Z,5.09
2023-03-06T11:14:42.791Z,5.24
2023-03-06T11:19:45.364Z,5.31
2023-03-06T11:24:52.770Z,5.41
2023-03-06T11:29:56.977Z,5.45
2023-03-06T11:35:17.278Z,5.35
2023-03-06T11:40:41.829Z,5.14
2023-03-06T11:45:56.898Z,5.10
2023-03-06T11:51:09.240Z,5.03
2023-03-06T11:56:19.987Z,4.95
2023-03-06T12:01:32.207Z,4.74
2023-03-06T12:07:07.801Z,4.71
2023-03-06T12:12:22.283Z,4.79
2023-03-06T12:17:53.049Z,4.93
2023-03-06T12:23:17.608Z,4.99
2023-03-06T12:28:29.136Z,4.94
2023-03-06T12:34:01.787Z,4.92
2023-03-06T12:39:17.892Z,4.89
2023-03-06T12:44:20.343Z,5.05
2023-03-06T12:49:33.337Z,5.39
2023-03-06T12:54:41.504Z,5.82
2023-03-06T12:59:47.233Z,6.32
2023-03-06T13:05:14.049Z,6.31
2023-03-06T13:10:27.097Z,5.94
2023-03-06T13:15:29.638Z,5.76
2023-03-06T13:20:40.730Z,5.76
2023-03-06T13:25:48.217Z,5.62
2023-03-06T13:30:52.879Z,5.46
2023-03-06T13:35:57.881Z,5.36
2023-03-06T13:41:21.931Z,5.22
2023-03-06T13:46:31.061Z,5.23
2023-03-06T13:51:36.992Z,5.18
2023-03-06T13:57:12.476Z,5.11
2023-03-06T14:02:55.728Z,5.02
2023-03-06T14:08:09.983Z,4.69
2023-03-06T14:13:35.153Z,4.37
2023-03-06T14:18:46.086Z,4.01
2023-03-06T14:24:00.411Z,3.88
2023-03-06T14:29:03.727Z,3.77
2023-03-06T14:34:17.882Z,3.70
2023-03-06T14:39:33.196Z,3.63
2023-03-06T14:44:35.740Z,3.78
2023-03-06T14:49:38.284Z,4.31
2023-03-06T14:54:45.252Z,4.73
2023-03-06T14:59:58.842Z,4.72
2023-03-06T15:05:17.481Z,4.48
2023-03-06T15:10:32.304Z,4.10
2023-03-06T15:15:35.023Z,3.69
2023-03-06T15:20:37.676Z,3.32
2023-03-06T15:25:40.222Z,2.99
2023-03-06T15:30:42.772Z,2.74
2023-03-06T15:35:52.692Z,2.48
2023-03-06T15:40:57.701Z,2.21
2023-03-06T15:46:01.307Z,1.93
2023-03-06T15:51:04.947Z,1.64
2023-03-06T15:56:10.406Z,1.37
2023-03-06T16:01:17.289Z,1.09
2023-03-06T16:06:24.459Z,0.82
2023-03-06T16:11:38.643Z,0.60
2023-03-06T16:16:46.078Z,0.40
2023-03-06T16:21:48.773Z,0.21
2023-03-06T16:26:52.890Z,0.04
2023-03-06T16:31:57.637Z,-0.13
2023-03-06T16:37:00.188Z,-0.31
2023-03-06T16:42:02.742Z,-0.47
2023-03-06T16:47:05.446Z,-0.60
2023-03-06T16:52:10.842Z,-0.73
2023-03-06T16:57:16.441Z,-0.86
2023-03-06T17:02:18.972Z,0.03
2023-03-06T17:07:22.252Z,3.55
2023-03-06T17:12:25.117Z,4.46
2023-03-06T17:17:28.797Z,2.36
2023-03-06T17:22:36.395Z,1.03
2023-03-06T17:27:39.073Z,0.20
2023-03-06T17:32:42.414Z,0.79
2023-03-06T17:37:45.821Z,4.03
2023-03-06T17:42:48.587Z,4.72
2023-03-06T17:47:54.454Z,2.58
2023-03-06T17:52:57.013Z,1.27
2023-03-06T17:58:00.018Z,0.46
2023-03-06T18:03:02.897Z,0.82
2023-03-06T18:08:08.043Z,3.24
2023-03-06T18:13:11.011Z,4.62
2023-03-06T18:18:13.842Z,3.34
2023-03-06T18:23:18.634Z,1.60
2023-03-06T18:28:21.881Z,0.61
2023-03-06T18:33:24.814Z,0.71
2023-03-06T18:38:27.611Z,3.06
2023-03-06T18:43:31.147Z,4.55
2023-03-06T18:48:36.369Z,3.97
2023-03-06T18:53:40.244Z,2.03
2023-03-06T18:58:44.268Z,0.93
2023-03-06T19:03:47.344Z,0.81
2023-03-06T19:08:53.880Z,3.12
2023-03-06T19:13:56.512Z,4.48
2023-03-06T19:18:59.544Z,2.54
2023-03-06T19:24:02.741Z,0.95
2023-03-06T19:29:05.512Z,-0.03
2023-03-06T19:34:11.023Z,0.16
2023-03-06T19:39:13.737Z,2.51
2023-03-06T19:44:16.609Z,3.88
2023-03-06T19:49:21.865Z,2.79
2023-03-06T19:54:25.520Z,0.96
2023-03-06T19:59:28.381Z,-0.11
2023-03-06T20:04:33.010Z,0.09
2023-03-06T20:09:38.905Z,2.40
2023-03-06T20:14:42.876Z,3.81
2023-03-06T20:19:45.468Z,3.21
2023-03-06T20:24:48.439Z,1.21
2023-03-06T20:29:51.211Z,0.00
2023-03-06T20:34:53.785Z,0.25
2023-03-06T20:39:56.422Z,2.52
2023-03-06T20:45:02.186Z,3.89
2023-03-06T20:50:05.635Z,3.33
2023-03-06T20:55:09.956Z,1.33
2023-03-06T21:00:13.441Z,0.97
2023-03-06T21:05:16.657Z,2.99
2023-03-06T21:10:19.271Z,4.23
2023-03-06T21:15:22.446Z,3.10
2023-03-06T21:20:25.015Z,1.10
2023-03-06T21:25:28.932Z,0.82
2023-03-06T21:30:32.530Z,2.91
2023-03-06T21:35:38.030Z,4.10
2023-03-06T21:40:41.171Z,3.30
2023-03-06T21:45:48.363Z,1.15
2023-03-06T21:50:50.953Z,-0.22
2023-03-06T21:55:53.536Z,0.07
2023-03-06T22:00:56.839Z,2.69
2023-03-06T22:06:20.320Z,3.78
2023-03-06T22:11:25.237Z,2.91
2023-03-06T22:16:27.842Z,0.71
2023-03-06T22:21:30.503Z,-0.63
2023-03-06T22:26:33.046Z,-0.60
2023-03-06T22:31:35.700Z,1.63
2023-03-06T22:36:38.367Z,3.07
2023-03-06T22:41:41.066Z,3.42
2023-03-06T22:46:43.981Z,1.37
2023-03-06T22:51:46.505Z,1.16
2023-03-06T22:56:49.032Z,2.97
2023-03-06T23:01:51.544Z,3.26
2023-03-06T23:06:54.065Z,1.08
2023-03-06T23:11:56.596Z,-0.46
2023-03-06T23:16:59.124Z,-0.50
2023-03-06T23:22:01.773Z,1.80
2023-03-06T23:27:04.698Z,3.33
2023-03-06T23:32:07.560Z,1.96
2023-03-06T23:37:10.402Z,-0.08
2023-03-06T23:42:12.867Z,0.10
2023-03-06T23:47:17.118Z,2.67
2023-03-06T23:52:19.637Z,3.48
2023-03-06T23:57:22.339Z,1.06
